Azalea Park, Florida
Current Conditions -  °F | °C
As of 12:53 PM on Thursday 27 Nov 2014 (Local Time) from KORL Reporting Station
Clear Clear  
Wind Chill: 69°   Ceiling: Unl
Heat Index: 69°   Visibility: 10mi
Dew Point: 46°   Wind: 16mph
Humidity: 44%   Direction: 290°WNW
Pressure: 30.2"   Gusts: 25mph
Location:  28.5525°N, 81.3003°W
Report Text: KORL 271753Z 29014G22KT 10SM CLR 21/08 A3020 RMK AO2 SLP229 T02060078 10206 20083 58028
Loading
Personal Weather Stations






























Interactive Weather Map New forecast layout! Learn more

10-Day Weather Forecast

Advertisements
Track Severe Weather on mobile